Time;durP1;ratioP1;P1;durP2;ratioP2;P2;SDS_P1;SDS_P2;PMS_P1;PMS_P2;Temp;Humidity;BMP_temperature;BMP_pressure;BME280_temperature;BME280_humidity;BME280_pressure;Samples;Min_cycle;Max_cycle;Signal;HPM_P1;HPM_P2
2022/03/27 00:00:13;;;;;;;17.42;14.15;;;3.80;99.90;;;;;;5020542;28;20021;-56
2022/03/27 00:02:40;;;;;;;28.45;15.85;;;3.80;99.90;;;;;;5022775;28;20022;-56
2022/03/27 00:05:08;;;;;;;20.83;13.88;;;3.70;99.90;;;;;;5019059;28;20025;-55
2022/03/27 00:07:33;;;;;;;22.70;14.93;;;3.60;99.90;;;;;;5017264;28;20296;-56
2022/03/27 00:09:59;;;;;;;29.33;16.10;;;3.60;99.90;;;;;;5013578;28;20060;-55
2022/03/27 00:12:24;;;;;;;27.23;15.35;;;3.60;99.90;;;;;;5014679;28;20100;-57
2022/03/27 00:14:50;;;;;;;27.95;17.50;;;3.60;99.90;;;;;;5016941;28;20376;-56
2022/03/27 00:17:16;;;;;;;18.48;14.80;;;3.60;99.90;;;;;;5019386;28;20461;-57
2022/03/27 00:19:41;;;;;;;23.42;14.80;;;3.60;99.90;;;;;;5020889;28;20505;-56
2022/03/27 00:22:07;;;;;;;22.98;15.00;;;3.50;99.90;;;;;;5019887;28;20030;-57
2022/03/27 00:24:32;;;;;;;26.38;17.45;;;3.50;99.90;;;;;;5019423;28;20029;-56
2022/03/27 00:26:58;;;;;;;19.38;14.52;;;3.50;99.90;;;;;;5018788;28;20021;-56
2022/03/27 00:29:23;;;;;;;21.30;14.38;;;3.50;99.90;;;;;;5023876;28;20026;-56
2022/03/27 00:31:49;;;;;;;21.70;14.15;;;3.50;99.90;;;;;;5018166;28;20080;-55
2022/03/27 00:34:15;;;;;;;21.45;13.55;;;3.40;99.90;;;;;;5018997;28;20071;-57
2022/03/27 00:36:40;;;;;;;26.80;15.10;;;3.40;99.90;;;;;;5021479;28;20050;-57
2022/03/27 00:39:06;;;;;;;20.55;14.02;;;3.40;99.90;;;;;;5020486;28;20251;-56
2022/03/27 00:41:32;;;;;;;21.80;14.27;;;3.40;99.90;;;;;;5020172;28;20029;-57
2022/03/27 00:43:57;;;;;;;18.45;13.95;;;3.50;99.90;;;;;;5021147;28;20156;-56
2022/03/27 00:46:23;;;;;;;26.42;14.50;;;3.50;99.90;;;;;;5023341;28;20041;-56
2022/03/27 00:48:48;;;;;;;26.98;14.45;;;3.40;99.90;;;;;;5022136;28;20552;-56
2022/03/27 00:51:14;;;;;;;23.63;15.75;;;3.40;99.90;;;;;;5022567;28;20029;-56
2022/03/27 00:53:40;;;;;;;21.38;13.48;;;3.40;99.90;;;;;;5018782;28;20030;-55
2022/03/27 00:56:05;;;;;;;21.95;13.20;;;3.40;99.90;;;;;;5021062;28;20068;-57
2022/03/27 00:58:31;;;;;;;24.80;15.32;;;3.30;99.90;;;;;;5022278;28;20014;-56
2022/03/27 01:01:23;;;;;;;33.13;15.70;;;3.20;99.90;;;;;;5016735;28;20586;-55
2022/03/27 01:03:53;;;;;;;29.08;14.73;;;3.10;99.90;;;;;;5018606;28;20030;-57
2022/03/27 01:06:41;;;;;;;27.45;14.75;;;2.90;99.90;;;;;;5023432;28;20041;-57
2022/03/27 01:11:56;;;;;;;19.85;13.50;;;2.80;99.90;;;;;;5019898;28;20064;-56
2022/03/27 01:14:35;;;;;;;20.30;14.82;;;2.70;99.90;;;;;;5019921;28;20428;-56
2022/03/27 01:17:08;;;;;;;23.83;14.60;;;2.60;99.90;;;;;;5020390;28;20467;-57
2022/03/27 01:19:35;;;;;;;24.42;14.63;;;2.60;99.90;;;;;;5023754;28;20226;-56
2022/03/27 01:22:00;;;;;;;21.90;14.07;;;2.50;99.90;;;;;;5018138;28;20025;-57
2022/03/27 01:24:27;;;;;;;37.60;15.85;;;2.50;99.90;;;;;;5022958;28;20116;-57
2022/03/27 01:26:53;;;;;;;20.77;14.27;;;2.50;99.90;;;;;;5021588;28;20100;-56
2022/03/27 01:29:18;;;;;;;31.17;16.20;;;2.50;99.90;;;;;;5023904;28;20024;-57
2022/03/27 01:31:45;;;;;;;23.48;14.77;;;2.50;99.90;;;;;;5017385;28;21414;-57
2022/03/27 01:34:11;;;;;;;22.02;15.50;;;2.50;99.90;;;;;;5020695;28;20066;-56
2022/03/27 01:36:37;;;;;;;22.60;13.73;;;2.40;99.90;;;;;;5022048;28;20036;-55
2022/03/27 01:39:06;;;;;;;18.67;13.68;;;2.40;99.90;;;;;;5022642;28;20029;-57
2022/03/27 01:41:32;;;;;;;21.52;14.30;;;2.40;99.90;;;;;;5022729;28;20042;-57
2022/03/27 01:43:59;;;;;;;29.95;14.80;;;2.40;99.90;;;;;;5020740;28;20056;-56
2022/03/27 01:46:26;;;;;;;29.17;16.25;;;2.40;99.90;;;;;;5027505;28;20083;-55
2022/03/27 01:48:51;;;;;;;24.48;15.88;;;2.40;99.90;;;;;;5019569;28;20033;-57
2022/03/27 01:51:17;;;;;;;23.67;14.77;;;2.40;99.90;;;;;;5022688;28;21076;-56
2022/03/27 01:53:43;;;;;;;34.40;15.00;;;2.40;99.90;;;;;;5020148;28;20030;-57
2022/03/27 01:56:09;;;;;;;28.33;15.77;;;2.50;99.90;;;;;;5016436;28;20029;-55
2022/03/27 01:58:38;;;;;;;27.50;15.25;;;2.50;99.90;;;;;;5019446;28;20116;-56
2022/03/27 02:01:06;;;;;;;21.80;15.85;;;2.50;99.90;;;;;;5018897;28;20045;-57
2022/03/27 02:03:31;;;;;;;23.25;13.57;;;2.50;99.90;;;;;;5022815;28;20954;-57
2022/03/27 02:05:57;;;;;;;39.97;19.42;;;2.50;99.90;;;;;;5017234;28;20061;-56
2022/03/27 02:08:23;;;;;;;23.80;15.07;;;2.50;99.90;;;;;;5019564;28;20048;-56
2022/03/27 02:10:49;;;;;;;22.00;13.98;;;2.50;99.90;;;;;;5021975;28;20030;-56
2022/03/27 02:13:18;;;;;;;20.63;14.15;;;2.40;99.90;;;;;;5015908;28;20505;-56
2022/03/27 02:15:48;;;;;;;21.02;13.90;;;2.40;99.90;;;;;;5017406;28;20026;-57
2022/03/27 02:18:14;;;;;;;22.23;14.63;;;2.40;99.90;;;;;;5015067;28;20053;-57
2022/03/27 02:20:41;;;;;;;20.33;14.57;;;2.40;99.90;;;;;;5022004;28;20055;-55
2022/03/27 02:23:09;;;;;;;22.08;14.05;;;2.40;99.90;;;;;;5017584;28;20038;-56
2022/03/27 02:25:34;;;;;;;23.38;17.08;;;2.30;99.90;;;;;;5019097;28;20026;-55
2022/03/27 02:28:00;;;;;;;21.67;15.55;;;2.30;99.90;;;;;;5019715;28;20390;-57
2022/03/27 02:30:26;;;;;;;23.80;15.15;;;2.30;99.90;;;;;;5015195;28;20114;-57
2022/03/27 02:32:52;;;;;;;20.38;14.10;;;2.20;99.90;;;;;;5018706;28;20026;-57
2022/03/27 02:35:18;;;;;;;31.20;15.05;;;2.20;99.90;;;;;;5021549;28;20512;-56
2022/03/27 02:37:44;;;;;;;26.65;15.48;;;2.20;99.90;;;;;;5018967;28;20037;-56
2022/03/27 02:40:10;;;;;;;32.75;14.55;;;2.10;99.90;;;;;;5018610;28;20325;-56
2022/03/27 02:42:35;;;;;;;19.95;13.45;;;2.10;99.90;;;;;;5017930;28;20037;-56
2022/03/27 02:45:01;;;;;;;21.23;14.55;;;2.00;99.90;;;;;;5020295;28;20026;-55
2022/03/27 02:47:27;;;;;;;24.88;14.15;;;2.00;99.90;;;;;;5020483;28;20037;-56
2022/03/27 02:49:53;;;;;;;21.67;14.52;;;1.90;99.90;;;;;;5016181;28;20375;-55
2022/03/27 02:52:18;;;;;;;21.42;14.43;;;1.90;99.90;;;;;;5019818;28;20021;-57
2022/03/27 02:54:44;;;;;;;26.42;16.10;;;1.90;99.90;;;;;;5017033;28;20033;-57
2022/03/27 02:57:10;;;;;;;23.67;15.80;;;1.90;99.90;;;;;;5020621;28;20025;-56
2022/03/27 02:59:36;;;;;;;22.05;15.80;;;1.90;99.90;;;;;;5020865;28;20022;-56
2022/03/27 03:02:03;;;;;;;23.05;15.60;;;1.80;99.90;;;;;;5020878;28;20088;-56
2022/03/27 03:04:30;;;;;;;28.98;15.48;;;1.80;99.90;;;;;;5019866;28;20136;-55
2022/03/27 03:06:56;;;;;;;26.50;15.77;;;1.80;99.90;;;;;;5020473;28;20025;-57
2022/03/27 03:09:22;;;;;;;24.88;14.55;;;1.80;99.90;;;;;;5015370;28;20026;-56
2022/03/27 03:11:49;;;;;;;28.05;15.38;;;1.80;99.90;;;;;;5015942;28;20457;-55
2022/03/27 03:14:15;;;;;;;19.67;14.75;;;1.80;99.90;;;;;;5018623;28;20041;-56
2022/03/27 03:16:41;;;;;;;20.70;15.02;;;1.80;99.90;;;;;;5020329;28;20481;-56
2022/03/27 03:19:07;;;;;;;21.17;15.02;;;1.80;99.90;;;;;;5020211;28;20042;-57
2022/03/27 03:21:33;;;;;;;27.00;16.20;;;1.70;99.90;;;;;;5019213;28;20381;-54
2022/03/27 03:23:59;;;;;;;25.63;14.73;;;1.70;99.90;;;;;;5017263;28;20033;-56
2022/03/27 03:26:24;;;;;;;31.17;16.17;;;1.70;99.90;;;;;;5021713;28;20168;-56
2022/03/27 03:28:50;;;;;;;27.58;15.27;;;1.70;99.90;;;;;;5017898;28;20108;-55
2022/03/27 03:31:16;;;;;;;34.97;16.63;;;1.60;99.90;;;;;;5014162;28;20041;-55
2022/03/27 03:33:41;;;;;;;27.95;16.02;;;1.70;99.90;;;;;;5016672;28;20030;-57
2022/03/27 03:36:07;;;;;;;27.40;15.57;;;1.70;99.90;;;;;;5014316;28;20042;-56
2022/03/27 03:38:33;;;;;;;28.42;15.77;;;1.70;99.90;;;;;;5017601;28;20018;-56
2022/03/27 03:40:59;;;;;;;30.52;16.58;;;1.70;99.90;;;;;;5016371;28;20033;-56
2022/03/27 03:43:25;;;;;;;28.85;15.18;;;1.70;99.90;;;;;;5016002;28;20030;-55
2022/03/27 03:45:51;;;;;;;28.52;15.93;;;1.60;99.90;;;;;;5014462;28;20038;-56
2022/03/27 03:48:17;;;;;;;21.92;14.93;;;1.60;99.90;;;;;;5014062;28;20041;-56
2022/03/27 03:50:43;;;;;;;24.17;15.45;;;1.60;99.90;;;;;;5016645;28;20515;-56
2022/03/27 03:53:09;;;;;;;28.77;14.30;;;1.50;99.90;;;;;;5017903;28;20038;-55
2022/03/27 03:55:35;;;;;;;28.08;16.52;;;1.50;99.90;;;;;;5015657;28;20029;-56
2022/03/27 03:58:01;;;;;;;28.85;14.45;;;1.50;99.90;;;;;;5019068;28;20029;-55
2022/03/27 04:00:27;;;;;;;26.23;16.08;;;1.40;99.90;;;;;;5015470;28;20045;-55
2022/03/27 04:02:53;;;;;;;27.88;15.75;;;1.40;99.90;;;;;;5012539;28;20022;-56
2022/03/27 04:05:19;;;;;;;23.33;15.25;;;1.40;99.90;;;;;;5015923;28;20061;-56
2022/03/27 04:07:45;;;;;;;22.58;14.45;;;1.40;99.90;;;;;;5015718;28;20454;-56
2022/03/27 04:10:12;;;;;;;25.60;15.77;;;1.40;99.90;;;;;;5018006;28;20038;-56
2022/03/27 04:12:37;;;;;;;29.58;15.85;;;1.40;99.90;;;;;;5015989;28;20465;-55
2022/03/27 04:15:04;;;;;;;27.05;16.45;;;1.30;99.90;;;;;;5016175;28;20071;-54
2022/03/27 04:17:30;;;;;;;26.15;14.50;;;1.30;99.90;;;;;;5013608;28;20130;-54
2022/03/27 04:19:56;;;;;;;31.30;15.32;;;1.30;99.90;;;;;;5015198;28;20112;-55
2022/03/27 04:22:21;;;;;;;25.60;15.85;;;1.30;99.90;;;;;;5016732;28;20034;-55
2022/03/27 04:24:47;;;;;;;32.95;16.23;;;1.30;99.90;;;;;;5015006;28;20033;-55
2022/03/27 04:27:13;;;;;;;28.67;16.20;;;1.30;99.90;;;;;;5016457;28;20026;-55
2022/03/27 04:29:38;;;;;;;27.98;16.65;;;1.30;99.90;;;;;;5014755;28;20038;-56
2022/03/27 04:32:04;;;;;;;27.50;15.02;;;1.30;99.90;;;;;;5014480;28;20405;-56
2022/03/27 04:34:30;;;;;;;30.77;16.00;;;1.30;99.90;;;;;;5015300;28;20025;-56
2022/03/27 04:36:55;;;;;;;27.20;14.80;;;1.30;99.90;;;;;;5016738;28;20103;-56
2022/03/27 04:39:22;;;;;;;29.35;14.95;;;1.30;99.90;;;;;;5017846;28;20389;-55
2022/03/27 04:41:48;;;;;;;23.08;15.82;;;1.30;99.90;;;;;;5013142;28;20902;-54
2022/03/27 04:44:14;;;;;;;28.02;15.40;;;1.30;99.90;;;;;;5018412;28;20492;-56
2022/03/27 04:46:39;;;;;;;26.05;15.32;;;1.30;99.90;;;;;;5017601;28;20030;-54
2022/03/27 04:49:05;;;;;;;24.55;14.90;;;1.20;99.90;;;;;;5018961;28;20025;-57
2022/03/27 04:51:31;;;;;;;32.60;13.70;;;1.20;99.90;;;;;;5013382;28;20104;-55
2022/03/27 04:53:57;;;;;;;21.35;14.55;;;1.20;99.90;;;;;;5016416;28;20607;-56
2022/03/27 04:56:23;;;;;;;23.05;13.88;;;1.10;99.90;;;;;;5016245;28;20030;-54
2022/03/27 04:58:48;;;;;;;21.92;14.00;;;1.00;99.90;;;;;;5013811;28;20084;-55
2022/03/27 05:01:14;;;;;;;25.27;14.13;;;1.00;99.90;;;;;;5012781;28;20026;-55
2022/03/27 05:03:40;;;;;;;22.15;14.93;;;1.00;99.90;;;;;;5016864;28;20092;-56
2022/03/27 05:06:06;;;;;;;28.42;16.45;;;0.90;99.90;;;;;;5022628;28;20029;-56
2022/03/27 05:08:33;;;;;;;22.25;16.08;;;0.90;99.90;;;;;;5017963;28;20433;-55
2022/03/27 05:10:58;;;;;;;26.98;15.48;;;0.90;99.90;;;;;;5017619;28;20045;-53
2022/03/27 05:13:25;;;;;;;24.90;15.00;;;0.90;99.90;;;;;;5019909;28;20108;-56
2022/03/27 05:15:50;;;;;;;26.08;15.35;;;0.90;99.90;;;;;;5017108;28;20045;-55
2022/03/27 05:18:16;;;;;;;27.15;14.70;;;0.90;99.90;;;;;;5023430;28;20090;-56
2022/03/27 05:20:43;;;;;;;26.00;14.63;;;1.00;99.90;;;;;;5019643;28;20021;-54
2022/03/27 05:23:09;;;;;;;23.90;14.52;;;1.00;99.90;;;;;;5017927;28;20030;-55
2022/03/27 05:25:45;;;;;;;26.17;14.45;;;1.00;99.90;;;;;;5019347;28;20025;-54
2022/03/27 05:28:12;;;;;;;19.58;13.73;;;1.10;99.90;;;;;;5018808;28;20030;-56
2022/03/27 05:30:38;;;;;;;22.15;12.13;;;1.20;99.90;;;;;;5019804;28;20033;-55
2022/03/27 05:33:04;;;;;;;19.95;14.57;;;1.20;99.90;;;;;;5016685;28;20022;-56
2022/03/27 05:35:30;;;;;;;17.23;13.05;;;1.30;99.90;;;;;;5017468;28;20026;-54
2022/03/27 05:37:57;;;;;;;20.27;12.68;;;1.40;99.90;;;;;;5016531;28;20084;-55
2022/03/27 05:40:23;;;;;;;21.55;11.88;;;1.40;99.90;;;;;;5017291;28;20034;-55
2022/03/27 05:42:50;;;;;;;19.20;13.77;;;1.50;99.90;;;;;;5014962;28;20042;-56
2022/03/27 05:45:16;;;;;;;27.85;13.43;;;1.50;99.90;;;;;;5018173;28;20466;-55
2022/03/27 05:47:42;;;;;;;17.55;12.57;;;1.60;99.90;;;;;;5022540;28;20021;-56
2022/03/27 05:50:09;;;;;;;26.17;13.75;;;1.70;99.90;;;;;;5021173;28;20033;-55
2022/03/27 05:52:35;;;;;;;22.85;12.75;;;1.90;99.90;;;;;;5017337;28;20663;-56
2022/03/27 05:55:01;;;;;;;24.38;13.50;;;1.90;99.90;;;;;;5015286;28;20106;-55
2022/03/27 05:57:27;;;;;;;18.17;12.60;;;2.10;99.90;;;;;;5020093;28;20030;-54
2022/03/27 05:59:52;;;;;;;25.45;14.00;;;2.10;99.90;;;;;;5019827;28;20033;-56
2022/03/27 06:02:18;;;;;;;17.02;12.68;;;2.30;99.90;;;;;;5017276;28;20032;-55
2022/03/27 06:04:44;;;;;;;24.38;12.82;;;2.30;99.90;;;;;;5019169;28;20049;-56
2022/03/27 06:07:10;;;;;;;16.27;12.48;;;2.40;99.90;;;;;;5018486;28;20413;-55
2022/03/27 06:09:36;;;;;;;17.67;13.93;;;2.70;99.90;;;;;;5014785;28;20496;-56
2022/03/27 06:12:03;;;;;;;19.95;11.98;;;3.50;99.90;;;;;;5019261;28;20021;-57
2022/03/27 06:14:29;;;;;;;12.40;9.98;;;4.70;99.90;;;;;;5015680;28;20466;-55
2022/03/27 06:16:56;;;;;;;11.80;10.48;;;5.80;99.90;;;;;;5015804;28;20029;-56
2022/03/27 06:19:21;;;;;;;16.98;12.52;;;6.60;99.90;;;;;;5015748;28;20076;-57
2022/03/27 06:21:47;;;;;;;13.52;10.18;;;7.60;99.90;;;;;;5019157;28;20038;-55
2022/03/27 06:24:13;;;;;;;15.65;10.40;;;8.40;99.90;;;;;;5017781;28;20030;-55
2022/03/27 06:26:40;;;;;;;17.52;11.73;;;9.20;99.90;;;;;;5019143;28;20041;-55
2022/03/27 06:29:07;;;;;;;15.93;10.80;;;10.10;97.80;;;;;;5019103;28;20441;-56
2022/03/27 06:31:32;;;;;;;13.85;10.30;;;10.50;97.50;;;;;;5015136;28;20453;-56
2022/03/27 06:33:58;;;;;;;12.85;11.65;;;11.20;93.40;;;;;;5017923;28;20022;-57
2022/03/27 06:36:24;;;;;;;15.05;11.15;;;12.20;87.50;;;;;;5017974;28;20060;-56
2022/03/27 06:38:50;;;;;;;16.80;11.40;;;12.40;82.50;;;;;;5014528;28;20026;-57
2022/03/27 06:41:15;;;;;;;16.15;12.15;;;13.00;79.40;;;;;;5015650;28;20029;-55
2022/03/27 06:43:41;;;;;;;13.82;11.50;;;13.80;78.50;;;;;;5023929;28;20030;-56
2022/03/27 06:46:07;;;;;;;14.82;11.23;;;13.80;73.10;;;;;;5017820;28;20045;-56
2022/03/27 06:48:33;;;;;;;13.30;12.10;;;14.50;71.60;;;;;;5020360;28;20113;-55
2022/03/27 06:50:59;;;;;;;17.27;11.10;;;15.00;68.40;;;;;;5019796;28;20021;-55
2022/03/27 06:53:25;;;;;;;13.13;11.60;;;15.50;67.70;;;;;;5017137;28;20100;-56
2022/03/27 06:55:52;;;;;;;16.45;12.32;;;15.60;65.90;;;;;;5020973;28;20021;-57
2022/03/27 06:58:18;;;;;;;15.75;12.32;;;16.00;63.40;;;;;;5017763;28;20034;-56
2022/03/27 07:03:28;;;;;;;16.50;12.27;;;17.20;60.40;;;;;;5014680;28;20075;-57
2022/03/27 07:05:54;;;;;;;13.45;11.63;;;17.70;59.70;;;;;;5018523;28;20018;-56
2022/03/27 07:08:20;;;;;;;18.67;13.98;;;18.40;57.00;;;;;;5018819;28;20125;-58
2022/03/27 07:10:48;;;;;;;15.98;13.95;;;18.20;56.80;;;;;;5018719;28;20061;-56
2022/03/27 07:13:16;;;;;;;17.92;13.27;;;18.40;56.00;;;;;;5016113;28;20045;-57
2022/03/27 07:15:43;;;;;;;14.77;13.32;;;18.30;56.80;;;;;;5013629;28;20128;-57
2022/03/27 07:18:11;;;;;;;17.90;13.35;;;18.50;55.80;;;;;;5012988;28;20026;-58
2022/03/27 07:20:41;;;;;;;18.63;14.43;;;19.30;54.60;;;;;;5019941;28;20389;-57
2022/03/27 07:23:09;;;;;;;14.27;13.07;;;20.10;52.90;;;;;;5017252;28;20053;-57
2022/03/27 07:25:38;;;;;;;14.68;13.38;;;20.40;52.60;;;;;;5012185;28;20497;-56
2022/03/27 07:28:05;;;;;;;18.73;14.05;;;20.70;51.40;;;;;;5016783;28;20559;-59
2022/03/27 07:30:31;;;;;;;15.05;13.75;;;21.60;50.20;;;;;;5019524;28;20026;-54
2022/03/27 07:32:57;;;;;;;15.43;13.88;;;22.10;49.10;;;;;;5014323;28;20049;-55
2022/03/27 07:35:24;;;;;;;14.95;13.68;;;22.40;48.80;;;;;;5019770;28;20466;-54
2022/03/27 07:37:51;;;;;;;14.32;12.90;;;23.00;47.00;;;;;;5016654;28;20045;-54
2022/03/27 07:40:16;;;;;;;14.52;12.95;;;23.20;46.70;;;;;;5015312;28;20037;-55
2022/03/27 07:42:49;;;;;;;16.75;13.35;;;23.50;45.90;;;;;;5017094;28;20034;-56
2022/03/27 07:45:21;;;;;;;13.65;12.25;;;23.70;45.50;;;;;;5015817;28;20029;-54
2022/03/27 07:47:48;;;;;;;14.43;13.05;;;24.50;44.80;;;;;;5012244;28;20084;-56
2022/03/27 07:50:14;;;;;;;14.93;13.15;;;24.50;44.20;;;;;;5016363;28;20037;-56
2022/03/27 07:52:40;;;;;;;14.05;12.77;;;24.50;43.80;;;;;;5016401;28;20041;-56
2022/03/27 07:55:06;;;;;;;15.25;13.93;;;24.90;44.00;;;;;;5015821;28;20145;-55
2022/03/27 07:57:33;;;;;;;14.63;13.43;;;25.40;43.30;;;;;;5016210;28;20026;-56
2022/03/27 07:59:59;;;;;;;15.23;13.98;;;25.80;42.00;;;;;;5012071;28;20092;-57
2022/03/27 08:02:25;;;;;;;14.80;13.20;;;26.20;41.10;;;;;;5016068;28;20029;-56
2022/03/27 08:04:50;;;;;;;16.58;14.95;;;26.30;41.00;;;;;;5016459;28;20033;-55
2022/03/27 08:07:16;;;;;;;15.25;13.73;;;25.90;41.60;;;;;;5018825;28;20494;-56
2022/03/27 08:09:42;;;;;;;16.10;14.68;;;25.60;42.60;;;;;;5019602;28;20053;-55
2022/03/27 08:12:09;;;;;;;15.35;13.90;;;25.60;42.80;;;;;;5015458;28;20053;-56
2022/03/27 08:14:36;;;;;;;15.77;14.02;;;26.10;42.30;;;;;;5015260;28;20026;-56
2022/03/27 08:17:03;;;;;;;15.80;14.23;;;26.70;41.40;;;;;;5017776;28;20071;-56
2022/03/27 08:19:28;;;;;;;15.30;14.10;;;27.30;41.10;;;;;;5013914;28;20967;-54
2022/03/27 08:21:54;;;;;;;14.48;13.30;;;27.70;40.50;;;;;;5018299;28;20117;-55
2022/03/27 08:24:20;;;;;;;15.70;14.20;;;28.00;40.00;;;;;;5018286;28;20033;-56
2022/03/27 08:27:02;;;;;;;13.75;12.65;;;27.90;39.70;;;;;;5017884;28;20036;-55
2022/03/27 08:29:34;;;;;;;14.35;13.05;;;27.50;40.50;;;;;;5015813;28;20077;-56
2022/03/27 08:32:02;;;;;;;16.38;14.88;;;27.50;40.70;;;;;;5015852;28;20572;-55
2022/03/27 08:34:30;;;;;;;15.00;13.50;;;27.80;40.10;;;;;;5013036;28;20413;-56
2022/03/27 08:36:57;;;;;;;14.48;13.38;;;28.30;39.60;;;;;;5017157;28;20029;-56
2022/03/27 08:39:24;;;;;;;15.30;13.95;;;28.70;40.30;;;;;;5020524;28;20548;-55
2022/03/27 08:41:51;;;;;;;17.75;13.93;;;28.20;39.90;;;;;;5019964;28;20064;-56
2022/03/27 08:44:26;;;;;;;20.77;13.48;;;28.60;41.60;;;;;;5016559;28;20065;-56
2022/03/27 08:46:54;;;;;;;15.50;13.70;;;29.50;40.30;;;;;;5009315;28;20045;-56
2022/03/27 08:49:38;;;;;;;15.88;14.48;;;29.70;39.30;;;;;;5019118;28;20021;-55
2022/03/27 08:52:21;;;;;;;16.00;14.68;;;29.40;39.90;;;;;;5023186;28;20141;-55
2022/03/27 08:54:50;;;;;;;15.57;14.20;;;29.10;40.30;;;;;;5021463;28;20104;-55
2022/03/27 08:57:24;;;;;;;16.02;14.38;;;28.60;40.70;;;;;;5020130;28;20038;-56
2022/03/27 08:59:53;;;;;;;15.40;13.93;;;29.40;40.50;;;;;;5019649;28;20033;-56
2022/03/27 09:02:22;;;;;;;14.48;13.27;;;29.50;40.50;;;;;;5021313;28;20026;-55
2022/03/27 09:04:55;;;;;;;16.15;14.77;;;29.90;40.60;;;;;;5020017;28;20066;-56
2022/03/27 09:07:25;;;;;;;15.48;14.05;;;30.00;40.40;;;;;;5018153;28;20404;-55
2022/03/27 09:09:51;;;;;;;14.65;13.27;;;30.00;40.70;;;;;;5021905;28;20463;-57
2022/03/27 09:12:18;;;;;;;15.82;14.32;;;30.50;39.80;;;;;;5019030;28;20061;-56
2022/03/27 09:14:45;;;;;;;16.65;15.18;;;30.60;39.60;;;;;;5017465;28;20049;-54
2022/03/27 09:17:10;;;;;;;15.85;14.65;;;30.60;39.80;;;;;;5013434;28;20037;-56
2022/03/27 09:19:43;;;;;;;15.77;14.48;;;30.40;39.90;;;;;;5018134;28;20042;-57
2022/03/27 09:22:18;;;;;;;14.40;13.23;;;30.80;39.00;;;;;;5020645;28;20042;-56
2022/03/27 09:24:55;;;;;;;14.68;13.48;;;31.30;38.80;;;;;;5018813;28;20580;-55
2022/03/27 09:27:32;;;;;;;14.10;13.00;;;31.30;38.90;;;;;;5018268;28;20018;-55
2022/03/27 09:30:08;;;;;;;16.30;14.95;;;31.20;39.20;;;;;;5019195;28;20056;-55
2022/03/27 09:32:36;;;;;;;15.25;14.07;;;30.70;38.80;;;;;;5015535;28;20042;-56
2022/03/27 09:35:11;;;;;;;14.88;13.45;;;31.00;38.50;;;;;;5018997;28;20775;-56
2022/03/27 09:37:41;;;;;;;14.07;12.95;;;31.40;38.70;;;;;;5018600;28;20029;-55
2022/03/27 09:40:08;;;;;;;;;;;31.40;38.90;;;;;;5016197;28;20451;-57
2022/03/27 09:42:37;;;;;;;13.98;12.77;;;31.70;39.00;;;;;;5017676;28;19963;-56
2022/03/27 09:45:14;;;;;;;12.43;11.43;;;31.90;38.50;;;;;;5019784;28;20087;-56
2022/03/27 09:47:42;;;;;;;13.38;12.20;;;31.70;39.00;;;;;;5020106;28;20026;-54
2022/03/27 09:50:27;;;;;;;10.00;9.20;;;31.80;39.40;;;;;;5019974;28;20045;-56
2022/03/27 09:52:53;;;;;;;11.15;10.02;;;31.90;38.50;;;;;;5019799;28;20034;-56
2022/03/27 09:55:18;;;;;;;10.60;9.63;;;31.40;38.10;;;;;;5020770;28;20378;-55
2022/03/27 09:57:46;;;;;;;10.40;9.50;;;31.60;37.60;;;;;;5020903;28;20045;-56
2022/03/27 10:00:11;;;;;;;10.35;9.35;;;31.40;38.10;;;;;;5019156;28;20038;-55
2022/03/27 10:02:38;;;;;;;10.70;9.80;;;31.10;39.50;;;;;;5018431;28;20108;-55
2022/03/27 10:05:04;;;;;;;10.18;9.23;;;31.30;39.60;;;;;;5019049;28;20037;-55
2022/03/27 10:07:34;;;;;;;12.80;11.15;;;31.20;38.80;;;;;;5015030;28;20034;-56
2022/03/27 10:09:59;;;;;;;11.57;10.57;;;30.60;38.80;;;;;;5017401;28;20485;-55
2022/03/27 10:12:31;;;;;;;9.88;8.95;;;30.40;40.00;;;;;;5014872;28;20040;-55
2022/03/27 10:15:03;;;;;;;10.18;9.27;;;31.00;40.70;;;;;;5017846;28;20022;-56
2022/03/27 10:17:31;;;;;;;10.43;8.80;;;31.50;39.10;;;;;;5021062;28;20408;-55
2022/03/27 10:20:01;;;;;;;9.55;8.65;;;31.80;37.60;;;;;;5017911;28;20095;-55
2022/03/27 10:22:28;;;;;;;9.13;8.23;;;30.70;37.00;;;;;;5019576;28;20030;-55
2022/03/27 10:24:56;;;;;;;10.48;9.48;;;29.60;38.70;;;;;;5016379;28;20032;-55
2022/03/27 10:27:22;;;;;;;9.88;8.98;;;27.90;40.60;;;;;;5016494;28;20034;-55
2022/03/27 10:29:48;;;;;;;10.73;9.82;;;26.70;42.90;;;;;;5033905;28;20030;-55
2022/03/27 10:32:14;;;;;;;11.18;9.23;;;26.20;43.70;;;;;;5031575;28;20129;-55
2022/03/27 10:35:29;;;;;;;10.15;9.25;;;25.40;45.80;;;;;;5018664;28;20030;-55
2022/03/27 10:38:28;;;;;;;11.07;9.18;;;24.90;46.80;;;;;;4994229;28;20033;-56
2022/03/27 10:41:12;;;;;;;9.57;8.77;;;24.50;48.60;;;;;;5016132;28;20378;-55
2022/03/27 10:43:50;;;;;;;10.57;9.57;;;24.30;48.30;;;;;;5015386;28;20035;-54
2022/03/27 10:46:17;;;;;;;9.63;8.82;;;24.00;48.10;;;;;;5031516;28;20113;-55
2022/03/27 10:48:44;;;;;;;9.52;8.73;;;23.70;49.80;;;;;;5015133;28;20160;-55
2022/03/27 10:51:31;;;;;;;10.45;9.45;;;23.60;50.50;;;;;;5018974;28;20049;-55
2022/03/27 10:54:04;;;;;;;11.43;9.00;;;23.50;50.30;;;;;;5015829;28;20029;-56
2022/03/27 10:56:51;;;;;;;9.55;8.65;;;23.50;50.40;;;;;;5020225;28;20036;-57
2022/03/27 10:59:26;;;;;;;10.18;9.18;;;23.20;50.60;;;;;;5015580;28;20025;-56
2022/03/27 11:01:59;;;;;;;10.23;9.32;;;23.30;50.70;;;;;;5015278;28;20022;-56
2022/03/27 11:04:41;;;;;;;9.93;8.95;;;23.10;51.40;;;;;;5018228;28;20532;-56
2022/03/27 11:07:19;;;;;;;9.02;8.20;;;22.80;51.90;;;;;;5015704;28;20145;-57
2022/03/27 11:09:45;;;;;;;9.88;8.82;;;22.30;52.70;;;;;;5015507;28;20091;-55
2022/03/27 11:12:41;;;;;;;8.70;7.80;;;22.10;53.00;;;;;;5013726;28;20033;-57
2022/03/27 11:15:07;;;;;;;9.35;8.55;;;21.80;53.80;;;;;;5002749;28;20033;-56
2022/03/27 11:17:43;;;;;;;8.93;8.07;;;21.60;55.00;;;;;;5014547;28;20451;-56
2022/03/27 11:20:32;;;;;;;8.80;8.00;;;21.50;55.60;;;;;;5015833;28;20329;-56
2022/03/27 11:22:59;;;;;;;9.63;8.52;;;21.30;55.20;;;;;;5013598;28;20443;-56
2022/03/27 11:25:34;;;;;;;9.32;8.32;;;21.20;55.20;;;;;;5017569;28;20406;-55
2022/03/27 11:28:08;;;;;;;9.70;8.80;;;21.00;55.70;;;;;;5017382;28;20052;-56
2022/03/27 11:31:00;;;;;;;9.52;8.48;;;20.80;56.60;;;;;;5015813;28;20032;-56
2022/03/27 11:33:31;;;;;;;9.25;8.35;;;20.60;57.20;;;;;;5016040;28;20026;-55
2022/03/27 11:36:13;;;;;;;8.57;7.47;;;20.40;58.20;;;;;;5016857;28;20084;-56
2022/03/27 11:39:01;;;;;;;9.55;8.57;;;20.30;58.20;;;;;;5015278;28;20057;-57
2022/03/27 11:41:34;;;;;;;7.85;7.05;;;20.20;57.50;;;;;;5015875;28;20029;-56
2022/03/27 11:47:12;;;;;;;;;;;20.40;57.10;;;;;;5017352;28;20492;-55
2022/03/27 11:49:40;;;;;;;8.88;7.03;;;20.50;58.00;;;;;;5018140;28;19917;-56
2022/03/27 11:52:08;;;;;;;7.85;7.13;;;20.50;58.00;;;;;;5015568;28;20038;-57
2022/03/27 11:54:34;;;;;;;8.32;7.00;;;20.50;57.10;;;;;;5014091;28;20029;-56
2022/03/27 11:57:01;;;;;;;7.53;6.70;;;20.70;56.80;;;;;;5017636;28;20393;-57
2022/03/27 11:59:28;;;;;;;8.43;7.32;;;20.80;56.50;;;;;;5019109;28;20041;-56
2022/03/27 12:02:00;;;;;;;8.90;6.45;;;21.00;56.50;;;;;;5015425;28;20029;-56
2022/03/27 12:04:26;;;;;;;9.98;6.03;;;21.20;55.90;;;;;;5015489;28;20116;-56
2022/03/27 12:07:02;;;;;;;7.35;6.65;;;21.40;55.90;;;;;;5021631;28;20082;-56
2022/03/27 12:09:32;;;;;;;6.07;5.47;;;21.50;55.70;;;;;;5017923;28;20044;-58
2022/03/27 12:12:05;;;;;;;6.28;5.78;;;21.80;55.70;;;;;;5017601;28;20034;-57
2022/03/27 12:14:30;;;;;;;6.38;5.78;;;22.00;53.80;;;;;;5018563;28;20095;-56
2022/03/27 12:16:56;;;;;;;7.97;6.38;;;22.00;54.40;;;;;;5016868;28;20030;-56
2022/03/27 12:19:21;;;;;;;9.43;6.25;;;22.00;53.90;;;;;;5017497;28;20026;-57
2022/03/27 12:21:47;;;;;;;7.20;6.05;;;22.00;54.10;;;;;;5018156;28;20027;-56
2022/03/27 12:24:14;;;;;;;8.65;6.80;;;21.90;53.50;;;;;;5015536;28;20049;-55
2022/03/27 12:29:43;;;;;;;7.13;6.53;;;21.70;54.10;;;;;;5016260;28;20036;-57
2022/03/27 12:32:14;;;;;;;6.85;5.75;;;21.00;54.20;;;;;;5016633;28;20022;-55
2022/03/27 12:34:50;;;;;;;7.50;5.80;;;20.80;57.00;;;;;;5017760;28;20021;-55
2022/03/27 12:37:17;;;;;;;7.10;6.50;;;21.10;56.50;;;;;;5019677;28;20030;-56
2022/03/27 12:39:49;;;;;;;6.90;6.30;;;21.30;55.30;;;;;;5017899;28;20038;-57
2022/03/27 12:42:29;;;;;;;6.18;5.55;;;21.50;54.10;;;;;;5019317;28;20052;-56
2022/03/27 12:45:01;;;;;;;7.47;6.10;;;21.60;54.40;;;;;;5016816;28;20018;-56
2022/03/27 12:47:34;;;;;;;6.38;5.80;;;21.70;55.30;;;;;;5022868;28;20034;-57
2022/03/27 12:50:01;;;;;;;6.35;5.75;;;21.80;54.40;;;;;;5019111;28;20026;-56
2022/03/27 12:52:27;;;;;;;6.93;5.75;;;21.80;53.10;;;;;;5012742;28;20388;-57